메인 페이지
METAR-TAF:

METAR-TAF

공항 :

로메, 토고

위도: 06-10N, 경도: 001-15E, 고도: 20m

현재 날씨관측

예보는 28분 전, 23:00시(UTC)에 발표되었습니다.
무풍
온도 24°C
습도 94%
기압 1015 hPa
시정: 8000m
고도 1000ft 상공 구름 조금

METAR: DXXX 012300Z 00000KT 8000 FEW010 24/23 Q1015 NOSIG

시각: 23:28 (23:28 UTC)

예보

예보는 6 시간 28분 전, 17:00시(UTC)에 발표되었습니다.
예보 대상 시간: 01일 18시부터 02일 24시까지 (UTC)
여러 방향의 바람 3kt
시정 10km 이상
고도 1200ft 상공 구름 보통
일시적
01일 18시부터 01일 22시까지 (UTC)
고도 1300ft 상공 구름 많음
고도 2000ft 상공 구름 조금, 적란운.
뇌우
전환 중
02일 08시부터 02일 10시까지 (UTC)
남남서10kt
확률 30% :
일시적
02일 10시부터 02일 16시까지 (UTC)
시정: 4000m
고도 1200ft 상공 구름 많음
고도 2000ft 상공 구름 조금, 적란운.
뇌우, 비

TAF: DXXX 011700Z 0118/0224 VRB03KT 9999 SCT012 TEMPO 0118/0122 TS BKN013 FEW020CB BECMG 0208/0210 20010KT PROB30 TEMPO 0210/0216 4000 TSRA BKN012 FEW020CB

4,000개 이상의 공항 관측 자료 및 예보 (METAR 및 TAF 보고).

지도상에서 검색 가능한 기상관측소가 노란 점과 빨간 점으로 표시되어 있습니다.

기상관측소 명을 보려면 표시 위로 마우스를 이동하세요.

날씨 관측과 예보를 보려면 클릭하세요.

지도 변경 : 확대하려면 엑스 표시가 있는 녹색 버튼, 축소하려면 빼기 표시가 있는 녹색 버튼, 다음 페이지의 지도를 보려면 녹색 화살표를 클릭하세요.


METAR-TAF: